Time;durP1;ratioP1;P1;durP2;ratioP2;P2;SDS_P1;SDS_P2;PMS_P1;PMS_P2;Temp;Humidity;BMP_temperature;BMP_pressure;BME280_temperature;BME280_humidity;BME280_pressure;Samples;Min_cycle;Max_cycle;Signal;HPM_P1;HPM_P2
2023/07/24 00:01:07;;;;;;;4.28;3.10;;;;;;;;;;4968905;28;20306;-67
2023/07/24 00:03:32;;;;;;;3.70;2.97;;;;;;;;;;4981707;23;21295;-72
2023/07/24 00:05:59;;;;;;;3.22;2.65;;;;;;;;;;4970520;28;20739;-70
2023/07/24 00:08:24;;;;;;;7.13;3.15;;;;;;;;;;4970944;28;20180;-72
2023/07/24 00:10:49;;;;;;;3.63;3.13;;;;;;;;;;4968499;28;20239;-71
2023/07/24 00:13:14;;;;;;;4.30;3.35;;;;;;;;;;4963698;28;20306;-70
2023/07/24 00:15:40;;;;;;;4.60;3.10;;;;;;;;;;4954326;28;20192;-70
2023/07/24 00:18:05;;;;;;;4.63;2.95;;;;;;;;;;4958929;28;20184;-71
2023/07/24 00:20:30;;;;;;;4.30;2.72;;;;;;;;;;4956259;28;20399;-71
2023/07/24 00:22:55;;;;;;;3.75;2.60;;;;;;;;;;4959303;28;20275;-70
2023/07/24 00:25:21;;;;;;;3.78;3.17;;;;;;;;;;4958204;28;20907;-71
2023/07/24 00:27:46;;;;;;;3.92;3.13;;;;;;;;;;4958611;28;20238;-72
2023/07/24 00:30:11;;;;;;;3.85;3.15;;;;;;;;;;4956825;28;20314;-72
2023/07/24 00:32:36;;;;;;;8.32;3.25;;;;;;;;;;4955318;28;20188;-71
2023/07/24 00:35:01;;;;;;;3.60;3.05;;;;;;;;;;4959520;28;20319;-71
2023/07/24 00:37:27;;;;;;;4.30;2.88;;;;;;;;;;4958186;28;20243;-71
2023/07/24 00:39:52;;;;;;;4.68;3.05;;;;;;;;;;4959490;28;20228;-71
2023/07/24 00:42:17;;;;;;;6.60;3.10;;;;;;;;;;4958242;28;20913;-71
2023/07/24 00:44:42;;;;;;;3.45;2.92;;;;;;;;;;4958473;28;20205;-71
2023/07/24 00:47:08;;;;;;;5.10;3.40;;;;;;;;;;4959467;28;20977;-71
2023/07/24 00:49:33;;;;;;;6.25;3.08;;;;;;;;;;4959451;28;20266;-71
2023/07/24 00:51:58;;;;;;;4.28;3.10;;;;;;;;;;4959229;28;20747;-71
2023/07/24 00:54:24;;;;;;;4.50;3.67;;;;;;;;;;4957931;28;20929;-71
2023/07/24 00:56:49;;;;;;;5.72;3.55;;;;;;;;;;4959248;28;20184;-71
2023/07/24 00:59:15;;;;;;;4.10;3.22;;;;;;;;;;4961347;28;20671;-71
2023/07/24 01:01:41;;;;;;;3.80;3.08;;;;;;;;;;4962050;28;20207;-71
2023/07/24 01:04:06;;;;;;;4.90;3.53;;;;;;;;;;4962227;28;20269;-71
2023/07/24 01:06:32;;;;;;;3.95;2.95;;;;;;;;;;4961333;28;20199;-71
2023/07/24 01:08:57;;;;;;;4.88;3.58;;;;;;;;;;4963232;28;20235;-71
2023/07/24 01:11:32;;;;;;;5.72;3.25;;;;;;;;;;4961022;28;20606;-71
2023/07/24 01:13:58;;;;;;;5.40;3.55;;;;;;;;;;4962003;28;20593;-71
2023/07/24 01:16:26;;;;;;;6.55;3.80;;;;;;;;;;4962235;28;20184;-71
2023/07/24 01:18:52;;;;;;;4.22;3.45;;;;;;;;;;4961360;28;20947;-71
2023/07/24 01:21:20;;;;;;;3.75;3.03;;;;;;;;;;4962555;28;20222;-71
2023/07/24 01:23:57;;;;;;;4.78;3.55;;;;;;;;;;4960531;28;20235;-71
2023/07/24 01:26:23;;;;;;;3.85;3.38;;;;;;;;;;4963790;28;20246;-71
2023/07/24 01:28:49;;;;;;;4.03;3.08;;;;;;;;;;4960184;28;20204;-71
2023/07/24 01:31:14;;;;;;;4.05;3.47;;;;;;;;;;4961716;28;20582;-72
2023/07/24 01:33:39;;;;;;;4.93;3.80;;;;;;;;;;4958162;28;20209;-70
2023/07/24 01:36:05;;;;;;;4.68;3.15;;;;;;;;;;4963278;28;20203;-70
2023/07/24 01:38:31;;;;;;;4.47;2.95;;;;;;;;;;4962468;28;20184;-70
2023/07/24 01:40:56;;;;;;;4.70;3.85;;;;;;;;;;4960657;28;20176;-71
2023/07/24 01:43:22;;;;;;;5.55;3.72;;;;;;;;;;4961935;28;20315;-71
2023/07/24 01:45:47;;;;;;;6.82;3.60;;;;;;;;;;4961559;28;20655;-71
2023/07/24 01:48:12;;;;;;;5.63;3.55;;;;;;;;;;4961411;28;20191;-72
2023/07/24 01:50:38;;;;;;;4.43;2.97;;;;;;;;;;4956507;28;20228;-71
2023/07/24 01:53:03;;;;;;;3.75;3.13;;;;;;;;;;4962808;28;20243;-71
2023/07/24 01:55:28;;;;;;;4.53;3.47;;;;;;;;;;4960606;28;20188;-71
2023/07/24 01:57:53;;;;;;;6.68;3.50;;;;;;;;;;4962263;28;20208;-71
2023/07/24 02:00:19;;;;;;;3.40;2.67;;;;;;;;;;4961002;28;20318;-71
2023/07/24 02:02:44;;;;;;;4.80;2.85;;;;;;;;;;4961500;28;20649;-71
2023/07/24 02:05:09;;;;;;;4.57;3.17;;;;;;;;;;4962363;28;20341;-71
2023/07/24 02:07:34;;;;;;;4.25;2.80;;;;;;;;;;4962566;28;20562;-71
2023/07/24 02:10:00;;;;;;;4.75;3.78;;;;;;;;;;4962460;28;20820;-71
2023/07/24 02:12:25;;;;;;;5.80;3.72;;;;;;;;;;4962293;28;20650;-71
2023/07/24 02:14:51;;;;;;;5.03;3.88;;;;;;;;;;4962244;28;20232;-71
2023/07/24 02:17:16;;;;;;;4.78;3.65;;;;;;;;;;4961398;28;20219;-71
2023/07/24 02:19:42;;;;;;;5.70;3.85;;;;;;;;;;4961183;28;20268;-71
2023/07/24 02:22:07;;;;;;;5.25;3.90;;;;;;;;;;4960828;28;20658;-71
2023/07/24 02:24:32;;;;;;;4.80;3.67;;;;;;;;;;4961341;28;20204;-71
2023/07/24 02:26:57;;;;;;;8.68;4.07;;;;;;;;;;4962009;28;20670;-71
2023/07/24 02:29:23;;;;;;;5.15;3.80;;;;;;;;;;4960110;28;20716;-71
2023/07/24 02:31:48;;;;;;;6.03;3.60;;;;;;;;;;4960994;28;20188;-71
2023/07/24 02:34:13;;;;;;;4.53;3.85;;;;;;;;;;4959739;28;20208;-71
2023/07/24 02:36:41;;;;;;;5.20;3.42;;;;;;;;;;4959687;28;20188;-71
2023/07/24 02:39:06;;;;;;;5.82;4.15;;;;;;;;;;4960741;28;20812;-71
2023/07/24 02:41:31;;;;;;;4.82;3.80;;;;;;;;;;4957958;28;20194;-71
2023/07/24 02:43:56;;;;;;;5.03;3.80;;;;;;;;;;4960229;28;20218;-71
2023/07/24 02:46:24;;;;;;;5.85;3.40;;;;;;;;;;4958976;28;20188;-71
2023/07/24 02:48:49;;;;;;;4.63;3.60;;;;;;;;;;4960299;28;20242;-71
2023/07/24 02:51:14;;;;;;;7.28;3.85;;;;;;;;;;4954589;28;20265;-71
2023/07/24 02:53:39;;;;;;;5.47;4.38;;;;;;;;;;4959499;28;20254;-71
2023/07/24 02:56:05;;;;;;;5.15;3.65;;;;;;;;;;4958568;28;20188;-71
2023/07/24 02:58:30;;;;;;;5.80;3.83;;;;;;;;;;4960622;28;20188;-71
2023/07/24 03:01:02;;;;;;;6.82;3.85;;;;;;;;;;4959851;28;20188;-72
2023/07/24 03:03:27;;;;;;;6.47;4.47;;;;;;;;;;4959803;28;20709;-71
2023/07/24 03:05:52;;;;;;;7.15;4.30;;;;;;;;;;4959711;28;20196;-72
2023/07/24 03:08:18;;;;;;;5.32;4.20;;;;;;;;;;4961394;28;20188;-71
2023/07/24 03:10:43;;;;;;;7.35;5.00;;;;;;;;;;4959947;28;20259;-71
2023/07/24 03:13:08;;;;;;;5.80;4.35;;;;;;;;;;4961139;28;20864;-71
2023/07/24 03:15:33;;;;;;;5.68;4.68;;;;;;;;;;4961688;28;20176;-71
2023/07/24 03:17:59;;;;;;;6.25;4.65;;;;;;;;;;4961332;28;20172;-71
2023/07/24 03:20:24;;;;;;;7.38;4.55;;;;;;;;;;4959839;28;20242;-71
2023/07/24 03:22:49;;;;;;;5.80;4.70;;;;;;;;;;4959876;28;20274;-71
2023/07/24 03:25:14;;;;;;;7.18;4.03;;;;;;;;;;4959149;28;20234;-71
2023/07/24 03:27:40;;;;;;;7.40;4.82;;;;;;;;;;4960780;28;20702;-71
2023/07/24 03:30:05;;;;;;;6.28;4.22;;;;;;;;;;4961073;28;20291;-72
2023/07/24 03:32:31;;;;;;;9.68;5.43;;;;;;;;;;4974916;28;20654;-71
2023/07/24 03:34:56;;;;;;;7.40;4.90;;;;;;;;;;4960308;28;20291;-71
2023/07/24 03:37:21;;;;;;;6.65;4.60;;;;;;;;;;4960804;28;20181;-71
2023/07/24 03:39:46;;;;;;;4.80;3.90;;;;;;;;;;4959545;28;20192;-72
2023/07/24 03:42:12;;;;;;;6.15;4.63;;;;;;;;;;4957753;28;20192;-72
2023/07/24 03:44:39;;;;;;;5.85;4.28;;;;;;;;;;4958209;28;20204;-72
2023/07/24 03:47:04;;;;;;;7.72;4.45;;;;;;;;;;4960237;28;20188;-72
2023/07/24 03:49:29;;;;;;;6.68;4.20;;;;;;;;;;4958773;28;20283;-72
2023/07/24 03:51:55;;;;;;;4.97;4.15;;;;;;;;;;4954961;28;20185;-72
2023/07/24 03:54:20;;;;;;;7.63;5.50;;;;;;;;;;4960427;28;20286;-72
2023/07/24 03:56:45;;;;;;;6.40;4.78;;;;;;;;;;4960750;28;20182;-72
2023/07/24 03:59:11;;;;;;;5.43;4.28;;;;;;;;;;4958120;28;20196;-72
2023/07/24 04:01:36;;;;;;;6.82;4.85;;;;;;;;;;4958135;28;21065;-72
2023/07/24 04:04:01;;;;;;;7.43;4.80;;;;;;;;;;4956826;28;20224;-72
2023/07/24 04:06:26;;;;;;;5.95;3.95;;;;;;;;;;4959014;28;20275;-72
2023/07/24 04:08:52;;;;;;;7.63;4.82;;;;;;;;;;4959407;28;20346;-72
2023/07/24 04:11:17;;;;;;;6.85;4.25;;;;;;;;;;4959087;28;20191;-72
2023/07/24 04:13:42;;;;;;;8.43;4.38;;;;;;;;;;4959612;28;21006;-72
2023/07/24 04:16:07;;;;;;;5.80;3.78;;;;;;;;;;4960350;28;20188;-72
2023/07/24 04:18:32;;;;;;;6.70;3.92;;;;;;;;;;4958871;28;20177;-72
2023/07/24 04:20:58;;;;;;;7.25;4.28;;;;;;;;;;4958774;28;20656;-72
2023/07/24 04:23:23;;;;;;;7.38;5.28;;;;;;;;;;4958576;28;20204;-72
2023/07/24 04:25:51;;;;;;;8.02;4.78;;;;;;;;;;4959901;28;20278;-72
2023/07/24 04:28:16;;;;;;;7.70;4.75;;;;;;;;;;4958440;28;20197;-72
2023/07/24 04:30:41;;;;;;;8.20;4.57;;;;;;;;;;4959858;28;20286;-72
2023/07/24 04:33:07;;;;;;;11.20;5.25;;;;;;;;;;4961673;28;20187;-72
2023/07/24 04:35:32;;;;;;;8.95;4.80;;;;;;;;;;4963214;28;20191;-73
2023/07/24 04:37:57;;;;;;;6.45;4.38;;;;;;;;;;4962625;28;20184;-71
2023/07/24 04:40:23;;;;;;;10.73;4.35;;;;;;;;;;4962306;28;20659;-71
2023/07/24 04:42:48;;;;;;;11.07;5.20;;;;;;;;;;4962386;28;21077;-71
2023/07/24 04:45:13;;;;;;;8.52;4.78;;;;;;;;;;4958594;28;20694;-71
2023/07/24 04:47:39;;;;;;;6.97;4.50;;;;;;;;;;4962854;28;20287;-72
2023/07/24 04:50:04;;;;;;;9.57;5.18;;;;;;;;;;4962036;28;20212;-72
2023/07/24 04:52:30;;;;;;;6.47;4.10;;;;;;;;;;4961501;28;20190;-72
2023/07/24 04:54:55;;;;;;;7.43;4.63;;;;;;;;;;4961949;28;20270;-71
2023/07/24 04:57:20;;;;;;;6.47;4.10;;;;;;;;;;4961265;28;20200;-72
2023/07/24 04:59:46;;;;;;;7.95;5.22;;;;;;;;;;4961942;28;20694;-71
2023/07/24 05:02:11;;;;;;;8.02;4.63;;;;;;;;;;4957617;28;20491;-72
2023/07/24 05:04:36;;;;;;;7.13;4.40;;;;;;;;;;4961461;28;20584;-73
2023/07/24 05:07:02;;;;;;;8.32;4.47;;;;;;;;;;4960097;28;20192;-72
2023/07/24 05:09:27;;;;;;;9.93;4.30;;;;;;;;;;4962955;28;20227;-71
2023/07/24 05:11:52;;;;;;;5.63;4.13;;;;;;;;;;4961032;28;20179;-71
2023/07/24 05:14:17;;;;;;;10.52;4.85;;;;;;;;;;4962226;28;20282;-71
2023/07/24 05:16:42;;;;;;;6.90;4.90;;;;;;;;;;4961700;28;20193;-72
2023/07/24 05:19:08;;;;;;;8.85;4.65;;;;;;;;;;4961932;28;20188;-71
2023/07/24 05:21:33;;;;;;;8.18;4.30;;;;;;;;;;4962441;28;20566;-71
2023/07/24 05:23:58;;;;;;;10.73;5.40;;;;;;;;;;4960344;28;20285;-71
2023/07/24 05:26:23;;;;;;;7.03;4.68;;;;;;;;;;4960739;28;20192;-72
2023/07/24 05:28:49;;;;;;;6.78;4.28;;;;;;;;;;4960774;28;20592;-71
2023/07/24 05:31:14;;;;;;;7.57;4.90;;;;;;;;;;4961801;28;20188;-73
2023/07/24 05:33:39;;;;;;;10.05;5.22;;;;;;;;;;4959941;28;21283;-71
2023/07/24 05:36:04;;;;;;;7.95;4.80;;;;;;;;;;4960933;28;20190;-70
2023/07/24 05:38:30;;;;;;;7.15;5.07;;;;;;;;;;4958710;28;20211;-71
2023/07/24 05:40:59;;;;;;;6.78;5.38;;;;;;;;;;4960765;28;20583;-72
2023/07/24 05:43:24;;;;;;;8.85;5.35;;;;;;;;;;4958670;28;20212;-71
2023/07/24 05:45:53;;;;;;;7.50;5.15;;;;;;;;;;4960075;28;20192;-72
2023/07/24 05:48:18;;;;;;;7.78;5.10;;;;;;;;;;4960819;28;21351;-73
2023/07/24 05:50:44;;;;;;;9.55;5.72;;;;;;;;;;4960500;28;20381;-74
2023/07/24 05:53:09;;;;;;;8.38;4.38;;;;;;;;;;4959280;28;20180;-73
2023/07/24 05:55:34;;;;;;;7.13;5.05;;;;;;;;;;4962187;28;20270;-71
2023/07/24 05:57:59;;;;;;;8.32;4.50;;;;;;;;;;4960638;28;20563;-71
2023/07/24 06:00:25;;;;;;;8.57;4.97;;;;;;;;;;4956089;28;20859;-71
2023/07/24 06:02:50;;;;;;;10.93;5.72;;;;;;;;;;4960575;28;20647;-72
2023/07/24 06:05:15;;;;;;;7.93;4.38;;;;;;;;;;4952989;28;20879;-71
2023/07/24 06:07:40;;;;;;;7.75;4.40;;;;;;;;;;4956658;28;20736;-72
2023/07/24 06:10:06;;;;;;;8.45;4.88;;;;;;;;;;4959044;28;20903;-72
2023/07/24 06:12:31;;;;;;;8.80;4.72;;;;;;;;;;4957233;28;20590;-71
2023/07/24 06:14:56;;;;;;;9.30;4.82;;;;;;;;;;4960366;28;20207;-72
2023/07/24 06:17:21;;;;;;;9.35;5.40;;;;;;;;;;4960088;28;20195;-73
2023/07/24 06:19:47;;;;;;;8.38;3.95;;;;;;;;;;4957923;28;20274;-71
2023/07/24 06:22:12;;;;;;;9.32;5.32;;;;;;;;;;4933596;28;20185;-72
2023/07/24 06:24:37;;;;;;;9.88;5.93;;;;;;;;;;4936539;28;20810;-72
2023/07/24 06:27:03;;;;;;;9.07;5.28;;;;;;;;;;4936769;28;20548;-71
2023/07/24 06:29:29;;;;;;;7.18;5.00;;;;;;;;;;4936951;28;20205;-71
2023/07/24 06:31:54;;;;;;;9.60;4.70;;;;;;;;;;4935323;28;20681;-71
2023/07/24 06:34:19;;;;;;;16.15;4.95;;;;;;;;;;4936548;28;20221;-71
2023/07/24 06:36:45;;;;;;;12.50;4.85;;;;;;;;;;4940240;28;20698;-72
2023/07/24 06:39:10;;;;;;;8.30;4.13;;;;;;;;;;4938083;28;20213;-71
2023/07/24 06:41:35;;;;;;;8.50;4.13;;;;;;;;;;4943072;28;20252;-72
2023/07/24 06:44:00;;;;;;;7.55;4.60;;;;;;;;;;4945090;28;20239;-72
2023/07/24 06:46:25;;;;;;;9.13;4.50;;;;;;;;;;4940832;28;20561;-72
2023/07/24 06:48:51;;;;;;;9.15;4.97;;;;;;;;;;4938101;28;20220;-73
2023/07/24 06:51:16;;;;;;;9.63;5.07;;;;;;;;;;4946901;28;20218;-73
2023/07/24 06:53:41;;;;;;;9.32;5.28;;;;;;;;;;4948594;28;20978;-73
2023/07/24 06:56:06;;;;;;;11.30;5.65;;;;;;;;;;4938119;28;20177;-73
2023/07/24 06:58:32;;;;;;;9.32;5.30;;;;;;;;;;4943323;28;20689;-73
2023/07/24 07:00:57;;;;;;;11.32;5.68;;;;;;;;;;4936332;28;20663;-72
2023/07/24 07:03:22;;;;;;;6.93;4.88;;;;;;;;;;4937312;28;20555;-72
2023/07/24 07:05:47;;;;;;;7.53;4.50;;;;;;;;;;4943941;28;20188;-73
2023/07/24 07:08:12;;;;;;;10.15;5.13;;;;;;;;;;4951969;28;20563;-72
2023/07/24 07:10:38;;;;;;;7.72;4.60;;;;;;;;;;4950886;28;20686;-72
2023/07/24 07:13:03;;;;;;;6.72;4.55;;;;;;;;;;4952342;28;20741;-73
2023/07/24 07:15:29;;;;;;;6.07;4.53;;;;;;;;;;4953891;28;20801;-74
2023/07/24 07:17:54;;;;;;;9.13;4.47;;;;;;;;;;4952901;28;20181;-73
2023/07/24 07:20:19;;;;;;;8.65;5.40;;;;;;;;;;4954694;28;20199;-73
2023/07/24 07:22:44;;;;;;;7.45;4.18;;;;;;;;;;4954474;28;20666;-73
2023/07/24 07:25:09;;;;;;;6.78;3.60;;;;;;;;;;4952625;28;20303;-73
2023/07/24 07:27:35;;;;;;;7.30;4.88;;;;;;;;;;4951647;28;20227;-72
2023/07/24 07:30:00;;;;;;;8.35;4.13;;;;;;;;;;4951022;28;20212;-73
2023/07/24 07:32:26;;;;;;;7.07;4.28;;;;;;;;;;4950474;28;20300;-72
2023/07/24 07:34:52;;;;;;;9.38;3.97;;;;;;;;;;4947363;28;20208;-74
2023/07/24 07:37:17;;;;;;;9.00;5.15;;;;;;;;;;4947611;28;20244;-73
2023/07/24 07:39:42;;;;;;;6.20;3.97;;;;;;;;;;4956163;28;20235;-74
2023/07/24 07:42:07;;;;;;;6.40;4.40;;;;;;;;;;4956656;28;20188;-73
2023/07/24 07:44:32;;;;;;;6.65;4.28;;;;;;;;;;4957529;28;20295;-72
2023/07/24 07:46:58;;;;;;;6.85;4.07;;;;;;;;;;4954620;28;20655;-72
2023/07/24 07:49:23;;;;;;;7.18;3.88;;;;;;;;;;4960064;28;20986;-73
2023/07/24 07:51:48;;;;;;;6.22;4.65;;;;;;;;;;4953829;28;20184;-72
2023/07/24 07:54:14;;;;;;;7.37;4.43;;;;;;;;;;4956740;28;20211;-74
2023/07/24 07:56:39;;;;;;;8.43;4.65;;;;;;;;;;4958119;28;21201;-72
2023/07/24 07:59:04;;;;;;;7.75;4.65;;;;;;;;;;4959271;28;20195;-74
2023/07/24 08:01:30;;;;;;;9.20;4.13;;;;;;;;;;4955822;28;20188;-74
2023/07/24 08:03:55;;;;;;;7.13;4.60;;;;;;;;;;4953974;28;20705;-74
2023/07/24 08:06:21;;;;;;;11.48;5.18;;;;;;;;;;4961962;28;20275;-73
2023/07/24 08:08:46;;;;;;;5.63;4.40;;;;;;;;;;4965028;28;20683;-73
2023/07/24 08:11:12;;;;;;;10.77;4.60;;;;;;;;;;4962145;28;20281;-73
2023/07/24 08:13:37;;;;;;;7.57;4.50;;;;;;;;;;4960097;28;20294;-74
2023/07/24 08:16:03;;;;;;;6.60;4.93;;;;;;;;;;4962270;28;20192;-74
2023/07/24 08:18:29;;;;;;;8.20;4.47;;;;;;;;;;4963536;28;20207;-73
2023/07/24 08:20:54;;;;;;;12.70;5.10;;;;;;;;;;4963129;28;20188;-73
2023/07/24 08:23:19;;;;;;;8.70;4.30;;;;;;;;;;4962577;28;20214;-72
2023/07/24 08:25:54;;;;;;;8.95;4.60;;;;;;;;;;4961370;28;20659;-73
2023/07/24 08:28:20;;;;;;;7.55;5.47;;;;;;;;;;4960892;28;20191;-73
2023/07/24 08:30:47;;;;;;;9.10;4.50;;;;;;;;;;4961039;28;20212;-74
2023/07/24 08:33:12;;;;;;;8.57;4.70;;;;;;;;;;4962621;28;20226;-73
2023/07/24 08:35:37;;;;;;;12.95;4.82;;;;;;;;;;4962376;28;20710;-73
2023/07/24 08:38:02;;;;;;;8.07;4.40;;;;;;;;;;4963263;28;20187;-73
2023/07/24 08:40:27;;;;;;;6.18;4.18;;;;;;;;;;4961208;28;20208;-73
2023/07/24 08:42:54;;;;;;;6.95;3.72;;;;;;;;;;4964686;28;20306;-75
2023/07/24 08:45:19;;;;;;;5.55;3.88;;;;;;;;;;4962266;28;20192;-73
2023/07/24 08:47:45;;;;;;;7.25;4.32;;;;;;;;;;4963507;28;20278;-72
2023/07/24 08:50:15;;;;;;;6.35;3.83;;;;;;;;;;4956141;28;20592;-72
2023/07/24 08:52:42;;;;;;;10.80;3.83;;;;;;;;;;4963015;28;20181;-72
2023/07/24 08:55:07;;;;;;;4.88;3.80;;;;;;;;;;4962457;28;20287;-72
2023/07/24 08:57:32;;;;;;;7.35;5.15;;;;;;;;;;4960035;28;20185;-72
2023/07/24 09:00:00;;;;;;;9.13;5.13;;;;;;;;;;4961788;28;20230;-72
2023/07/24 09:02:26;;;;;;;11.77;5.47;;;;;;;;;;4960987;28;20568;-72
2023/07/24 09:04:51;;;;;;;10.40;6.18;;;;;;;;;;4961677;28;20212;-73
2023/07/24 09:07:16;;;;;;;7.73;5.57;;;;;;;;;;4962167;28;20210;-72
2023/07/24 09:09:42;;;;;;;9.23;5.78;;;;;;;;;;4961517;28;20442;-72
2023/07/24 09:12:08;;;;;;;8.63;5.40;;;;;;;;;;4960805;28;21171;-73
2023/07/24 09:14:33;;;;;;;9.70;5.97;;;;;;;;;;4961488;28;21417;-73
2023/07/24 09:17:05;;;;;;;12.68;5.40;;;;;;;;;;4962123;28;20670;-73
2023/07/24 09:19:31;;;;;;;6.32;5.35;;;;;;;;;;4960251;28;20195;-73
2023/07/24 09:22:06;;;;;;;9.73;5.03;;;;;;;;;;4958876;28;20621;-73
2023/07/24 09:24:32;;;;;;;9.50;5.38;;;;;;;;;;4960891;28;20204;-73
2023/07/24 09:26:57;;;;;;;7.68;5.10;;;;;;;;;;4962496;28;20199;-73
2023/07/24 09:29:29;;;;;;;8.88;4.63;;;;;;;;;;4961025;28;20220;-73
2023/07/24 09:31:54;;;;;;;7.30;5.50;;;;;;;;;;4963242;28;20270;-74
2023/07/24 09:34:20;;;;;;;8.95;5.25;;;;;;;;;;4959961;28;20365;-74
2023/07/24 09:36:45;;;;;;;8.07;4.88;;;;;;;;;;4962659;28;20208;-73
2023/07/24 09:39:11;;;;;;;10.18;5.10;;;;;;;;;;4960664;28;20194;-72
2023/07/24 09:41:37;;;;;;;7.28;4.82;;;;;;;;;;4960875;28;20741;-73
2023/07/24 09:44:02;;;;;;;5.60;4.10;;;;;;;;;;4961774;28;20207;-73
2023/07/24 09:46:29;;;;;;;5.43;4.15;;;;;;;;;;4962239;28;20184;-73
2023/07/24 09:48:56;;;;;;;6.63;3.90;;;;;;;;;;4962669;28;20184;-73
2023/07/24 09:51:21;;;;;;;4.55;3.40;;;;;;;;;;4955827;28;20674;-74
2023/07/24 09:53:52;;;;;;;10.15;5.07;;;;;;;;;;4962504;28;20379;-74
2023/07/24 09:56:17;;;;;;;9.35;4.47;;;;;;;;;;4961619;28;20184;-72
2023/07/24 09:58:44;;;;;;;8.25;5.03;;;;;;;;;;4960670;28;20191;-73
2023/07/24 10:01:09;;;;;;;6.22;4.57;;;;;;;;;;4960107;28;20279;-73
2023/07/24 10:03:36;;;;;;;7.97;5.57;;;;;;;;;;4960621;28;20234;-73
2023/07/24 10:06:01;;;;;;;7.60;5.00;;;;;;;;;;4963640;28;20620;-74
2023/07/24 10:08:27;;;;;;;7.82;4.18;;;;;;;;;;4961097;28;20274;-75
2023/07/24 10:10:53;;;;;;;8.63;4.75;;;;;;;;;;4960397;28;20907;-74
2023/07/24 10:13:19;;;;;;;8.35;4.38;;;;;;;;;;4960733;28;20595;-74
2023/07/24 10:15:45;;;;;;;8.77;4.70;;;;;;;;;;4959905;28;20199;-75
2023/07/24 10:18:10;;;;;;;10.52;4.80;;;;;;;;;;4960036;28;20211;-74
2023/07/24 10:20:38;;;;;;;7.35;5.80;;;;;;;;;;4962277;28;20200;-74
2023/07/24 10:23:04;;;;;;;8.35;4.57;;;;;;;;;;4960230;28;20211;-73
2023/07/24 10:25:30;;;;;;;6.05;4.38;;;;;;;;;;4961506;28;20572;-74
2023/07/24 10:28:00;;;;;;;8.45;4.25;;;;;;;;;;4961971;28;20207;-73
2023/07/24 10:30:28;;;;;;;6.50;4.43;;;;;;;;;;4958473;28;20219;-75
2023/07/24 10:32:53;;;;;;;10.10;5.00;;;;;;;;;;4955255;28;20192;-74
2023/07/24 10:35:20;;;;;;;9.52;4.40;;;;;;;;;;4961557;28;20191;-73
2023/07/24 10:37:46;;;;;;;7.00;4.57;;;;;;;;;;4960191;28;20266;-73
2023/07/24 10:40:21;;;;;;;9.85;5.00;;;;;;;;;;4961491;28;20581;-74
2023/07/24 10:42:46;;;;;;;8.18;4.53;;;;;;;;;;4960246;28;20283;-72
2023/07/24 10:45:11;;;;;;;7.85;4.40;;;;;;;;;;4960921;28;20227;-73
2023/07/24 10:47:36;;;;;;;10.85;4.25;;;;;;;;;;4961673;28;20246;-72
2023/07/24 10:50:02;;;;;;;9.05;5.40;;;;;;;;;;4960331;28;20211;-72
2023/07/24 10:52:32;;;;;;;10.70;5.65;;;;;;;;;;4959673;28;20267;-72
2023/07/24 10:54:59;;;;;;;5.82;4.18;;;;;;;;;;4958159;28;20600;-73
2023/07/24 10:57:25;;;;;;;6.63;4.68;;;;;;;;;;4960821;28;20211;-72
2023/07/24 10:59:50;;;;;;;8.57;4.93;;;;;;;;;;4960513;28;20637;-73
2023/07/24 11:02:16;;;;;;;6.53;5.60;;;;;;;;;;4958859;28;20196;-73
2023/07/24 11:04:41;;;;;;;7.57;5.32;;;;;;;;;;4960204;28;20465;-73
2023/07/24 11:07:07;;;;;;;8.98;4.90;;;;;;;;;;4960572;28;20196;-73
2023/07/24 11:09:36;;;;;;;6.45;4.53;;;;;;;;;;4960069;28;20208;-75
2023/07/24 11:12:09;;;;;;;7.65;4.00;;;;;;;;;;4960287;28;20181;-72
2023/07/24 11:14:34;;;;;;;4.38;3.38;;;;;;;;;;4960129;28;20204;-71
2023/07/24 11:16:59;;;;;;;6.93;3.90;;;;;;;;;;4959178;28;20895;-75
2023/07/24 11:19:24;;;;;;;6.25;4.20;;;;;;;;;;4961983;28;20458;-73
2023/07/24 11:21:50;;;;;;;10.55;4.40;;;;;;;;;;4959461;28;20184;-73
2023/07/24 11:24:17;;;;;;;5.85;3.70;;;;;;;;;;4959742;28;20572;-74
2023/07/24 11:26:42;;;;;;;7.43;4.97;;;;;;;;;;4959264;28;20291;-73
2023/07/24 11:29:11;;;;;;;9.18;3.88;;;;;;;;;;4954677;28;20655;-74
2023/07/24 11:31:38;;;;;;;6.22;3.80;;;;;;;;;;4956225;28;20186;-75
2023/07/24 11:34:03;;;;;;;7.85;4.78;;;;;;;;;;4959488;28;20211;-74
2023/07/24 11:36:28;;;;;;;6.15;4.60;;;;;;;;;;4960171;28;20574;-72
2023/07/24 11:38:54;;;;;;;8.52;3.83;;;;;;;;;;4957430;28;21315;-73
2023/07/24 11:41:20;;;;;;;7.30;4.55;;;;;;;;;;4954535;28;20188;-73
2023/07/24 11:43:46;;;;;;;7.15;4.32;;;;;;;;;;4950503;28;20284;-74
2023/07/24 11:46:11;;;;;;;9.07;4.25;;;;;;;;;;4951443;28;20234;-74
2023/07/24 11:48:41;;;;;;;5.00;4.22;;;;;;;;;;4957346;28;20650;-74
2023/07/24 11:51:07;;;;;;;7.78;4.65;;;;;;;;;;4959276;28;20227;-73
2023/07/24 11:53:32;;;;;;;8.20;4.25;;;;;;;;;;4960548;28;20318;-74
2023/07/24 11:55:58;;;;;;;8.27;3.95;;;;;;;;;;4957098;28;20188;-74
2023/07/24 11:58:29;;;;;;;11.10;4.00;;;;;;;;;;4956832;28;20184;-73
2023/07/24 12:00:54;;;;;;;6.00;4.32;;;;;;;;;;4955320;28;20259;-73
2023/07/24 12:05:59;;;;;;;8.13;4.43;;;;;;;;;;4967109;28;20231;-67
2023/07/24 12:08:31;;;;;;;7.28;4.78;;;;;;;;;;4968486;28;20195;-68
2023/07/24 12:10:56;;;;;;;4.80;3.63;;;;;;;;;;4968692;28;20215;-68
2023/07/24 12:13:22;;;;;;;5.32;4.03;;;;;;;;;;4983707;28;20270;-68
2023/07/24 12:15:47;;;;;;;5.75;4.03;;;;;;;;;;4973097;28;21201;-67
2023/07/24 12:18:13;;;;;;;5.60;4.18;;;;;;;;;;4957714;28;20187;-68
2023/07/24 12:20:38;;;;;;;5.78;4.40;;;;;;;;;;4957785;28;20225;-67
2023/07/24 12:23:03;;;;;;;8.20;4.22;;;;;;;;;;4959122;28;20647;-67
2023/07/24 12:25:28;;;;;;;7.65;4.78;;;;;;;;;;4959512;28;20777;-66
2023/07/24 12:27:53;;;;;;;7.72;4.97;;;;;;;;;;4955262;28;20781;-67
2023/07/24 12:30:19;;;;;;;8.20;4.88;;;;;;;;;;4959453;28;20632;-67
2023/07/24 12:32:44;;;;;;;7.60;5.30;;;;;;;;;;4958849;28;20223;-66
2023/07/24 12:35:10;;;;;;;7.35;4.70;;;;;;;;;;4959437;28;20208;-67
2023/07/24 12:37:35;;;;;;;7.57;4.57;;;;;;;;;;4957396;28;20191;-66
2023/07/24 12:40:00;;;;;;;5.68;4.40;;;;;;;;;;4959241;28;21050;-68
2023/07/24 12:42:26;;;;;;;8.55;4.63;;;;;;;;;;4958951;28;20220;-68
2023/07/24 12:44:51;;;;;;;7.63;4.72;;;;;;;;;;4958948;28;20200;-69
2023/07/24 12:47:17;;;;;;;11.60;5.18;;;;;;;;;;4955213;28;20700;-69
2023/07/24 12:49:42;;;;;;;6.97;4.80;;;;;;;;;;4958074;28;20227;-69
2023/07/24 12:52:07;;;;;;;9.25;4.88;;;;;;;;;;4959213;28;20494;-69
2023/07/24 12:54:33;;;;;;;7.38;4.65;;;;;;;;;;4962800;28;20239;-69
2023/07/24 12:56:58;;;;;;;8.80;5.63;;;;;;;;;;4958702;28;20188;-69
2023/07/24 12:59:23;;;;;;;9.82;6.95;;;;;;;;;;4952972;28;20677;-69
2023/07/24 13:01:49;;;;;;;8.18;6.78;;;;;;;;;;4961590;28;20888;-68
2023/07/24 13:04:14;;;;;;;9.57;6.53;;;;;;;;;;4960871;28;20314;-69
2023/07/24 13:06:39;;;;;;;18.60;6.70;;;;;;;;;;4962746;28;20279;-69
2023/07/24 13:09:04;;;;;;;8.68;6.03;;;;;;;;;;4962388;28;20729;-69
2023/07/24 13:11:30;;;;;;;9.75;5.72;;;;;;;;;;4962635;28;20181;-69
2023/07/24 13:13:55;;;;;;;7.65;5.63;;;;;;;;;;4960773;28;20196;-68
2023/07/24 13:16:21;;;;;;;9.13;6.10;;;;;;;;;;4959647;28;20188;-69
2023/07/24 13:18:46;;;;;;;10.35;6.30;;;;;;;;;;4961806;28;20189;-69
2023/07/24 13:21:11;;;;;;;10.55;6.53;;;;;;;;;;4960788;28;20183;-69
2023/07/24 13:23:37;;;;;;;8.02;6.47;;;;;;;;;;4960665;28;20267;-70
2023/07/24 13:26:02;;;;;;;7.40;5.35;;;;;;;;;;4961970;28;20184;-70
2023/07/24 13:28:27;;;;;;;6.20;5.28;;;;;;;;;;4961600;28;20271;-70
2023/07/24 13:30:53;;;;;;;12.05;5.80;;;;;;;;;;4962250;28;20234;-70
2023/07/24 13:33:19;;;;;;;5.63;4.82;;;;;;;;;;4957188;28;20185;-69
2023/07/24 13:35:44;;;;;;;6.53;4.93;;;;;;;;;;4960276;28;20670;-69
2023/07/24 13:38:09;;;;;;;5.30;4.40;;;;;;;;;;4961586;28;20259;-69
2023/07/24 13:40:35;;;;;;;5.05;4.20;;;;;;;;;;4960198;28;20184;-70
2023/07/24 13:43:00;;;;;;;5.32;4.45;;;;;;;;;;4961801;28;21377;-70
2023/07/24 13:45:25;;;;;;;6.93;3.75;;;;;;;;;;4960425;28;21033;-68
2023/07/24 13:47:50;;;;;;;5.00;3.83;;;;;;;;;;4967631;28;21575;-69
2023/07/24 13:50:16;;;;;;;6.05;3.40;;;;;;;;;;4965182;28;20216;-70
2023/07/24 13:52:41;;;;;;;4.18;3.03;;;;;;;;;;4960259;28;20184;-70
2023/07/24 13:55:06;;;;;;;4.53;2.20;;;;;;;;;;4969096;28;20238;-69
2023/07/24 13:57:32;;;;;;;3.75;2.03;;;;;;;;;;4968258;28;20193;-69
2023/07/24 13:59:57;;;;;;;2.40;1.50;;;;;;;;;;4968337;28;20184;-69
2023/07/24 14:02:22;;;;;;;5.63;1.92;;;;;;;;;;4968139;28;20192;-69
2023/07/24 14:04:48;;;;;;;4.60;2.22;;;;;;;;;;4969124;28;20372;-69
2023/07/24 14:07:13;;;;;;;2.45;1.83;;;;;;;;;;4969372;28;20290;-69
2023/07/24 14:09:38;;;;;;;5.03;2.10;;;;;;;;;;4965136;28;20302;-69
2023/07/24 14:12:04;;;;;;;4.35;1.90;;;;;;;;;;4964340;28;20410;-68
2023/07/24 14:14:29;;;;;;;2.15;1.27;;;;;;;;;;4962050;28;20262;-68
2023/07/24 14:16:54;;;;;;;7.45;2.13;;;;;;;;;;4963304;28;21380;-69
2023/07/24 14:19:19;;;;;;;2.80;1.67;;;;;;;;;;4962473;28;20180;-68
2023/07/24 14:21:45;;;;;;;2.88;1.38;;;;;;;;;;4961766;28;20545;-67
2023/07/24 14:24:10;;;;;;;5.50;1.40;;;;;;;;;;4959688;28;20295;-68
2023/07/24 14:26:37;;;;;;;6.88;1.90;;;;;;;;;;4951344;28;20192;-67
2023/07/24 14:29:02;;;;;;;3.88;1.55;;;;;;;;;;4960354;28;20189;-68
2023/07/24 14:31:28;;;;;;;3.75;1.50;;;;;;;;;;4960802;28;20258;-68
2023/07/24 14:33:54;;;;;;;4.18;1.38;;;;;;;;;;4959817;28;20716;-68